Time;durP1;ratioP1;P1;durP2;ratioP2;P2;SDS_P1;SDS_P2;PMS_P1;PMS_P2;Temp;Humidity;BMP_temperature;BMP_pressure;BME280_temperature;BME280_humidity;BME280_pressure;Samples;Min_cycle;Max_cycle;Signal;HPM_P1;HPM_P2
2021/04/13 00:01:26;;;;;;;4.50;2.70;;;2.90;99.90;;;;;;5985481;24;20439;-81
2021/04/13 00:04:01;;;;;;;4.93;2.30;;;2.90;99.90;;;;;;6095117;23;20448;-81
2021/04/13 00:06:33;;;;;;;3.63;2.27;;;2.90;99.90;;;;;;6119658;23;20414;-81
2021/04/13 00:09:07;;;;;;;3.07;2.50;;;2.90;99.90;;;;;;6095066;23;20443;-82
2021/04/13 00:11:39;;;;;;;2.97;2.67;;;2.90;99.90;;;;;;6095810;23;20425;-81
2021/04/13 00:14:12;;;;;;;2.90;2.40;;;2.90;99.90;;;;;;6120093;23;20423;-82
2021/04/13 00:16:46;;;;;;;5.90;3.33;;;2.80;99.90;;;;;;6072603;23;20443;-81
2021/04/13 00:22:40;;;;;;;4.67;2.70;;;2.80;99.90;;;;;;5936697;24;20427;-82
2021/04/13 00:37:05;;;;;;;;;;;;;;;;;;;;;
2021/04/13 00:40:29;;;;;;;5.27;3.13;;;2.70;99.90;;;;;;5902013;24;20541;-81
2021/04/13 00:43:02;;;;;;;4.07;2.60;;;2.60;99.90;;;;;;5957435;24;20802;-82
2021/04/13 00:45:34;;;;;;;4.40;2.60;;;2.60;99.90;;;;;;5980626;24;20441;-82
2021/04/13 00:48:03;;;;;;;5.43;2.60;;;2.60;99.90;;;;;;5957561;24;20921;-81
2021/04/13 00:50:33;;;;;;;7.90;2.40;;;2.60;99.90;;;;;;6003669;23;20430;-82
2021/04/13 00:53:11;;;;;;;3.00;1.87;;;2.70;99.90;;;;;;6065688;23;20491;-81
2021/04/13 00:55:45;;;;;;;3.23;2.63;;;2.70;99.90;;;;;;6065275;23;20453;-81
2021/04/13 00:58:21;;;;;;;4.87;2.67;;;2.70;99.90;;;;;;6065881;23;20443;-82
2021/04/13 01:01:16;;;;;;;5.27;2.90;;;2.70;99.90;;;;;;6094559;23;20427;-81
2021/04/13 01:04:28;;;;;;;3.73;2.33;;;2.70;99.90;;;;;;6062502;23;20481;-82
2021/04/13 01:07:02;;;;;;;3.50;2.40;;;2.70;99.90;;;;;;6119386;23;20417;-82
2021/04/13 01:09:43;;;;;;;5.53;3.10;;;2.70;99.90;;;;;;6119553;23;20451;-82
2021/04/13 01:12:20;;;;;;;3.50;2.60;;;2.70;99.90;;;;;;6072170;23;20509;-82
2021/04/13 01:14:49;;;;;;;5.53;2.50;;;2.70;99.90;;;;;;6096377;23;20415;-82
2021/04/13 01:17:18;;;;;;;4.00;2.70;;;2.70;99.90;;;;;;6098251;23;20716;-82
2021/04/13 01:19:59;;;;;;;3.90;2.83;;;2.70;99.90;;;;;;6074703;23;20472;-82
2021/04/13 01:22:33;;;;;;;4.33;3.57;;;2.70;99.90;;;;;;6070302;23;20418;-82
2021/04/13 01:25:11;;;;;;;3.73;3.17;;;2.70;99.90;;;;;;6095479;23;20411;-82
2021/04/13 01:27:46;;;;;;;3.40;2.60;;;2.60;99.90;;;;;;6094993;23;20416;-82
2021/04/13 01:31:07;;;;;;;10.93;3.53;;;2.70;99.90;;;;;;5881999;24;20432;-82
2021/04/13 01:37:31;;;;;;;4.27;2.47;;;2.90;99.90;;;;;;5943135;24;20521;-82
2021/04/13 01:40:20;;;;;;;3.27;2.57;;;2.80;99.90;;;;;;5933490;24;20545;-82
2021/04/13 01:42:55;;;;;;;3.40;3.10;;;2.70;99.90;;;;;;5956997;24;20424;-82
2021/04/13 01:45:32;;;;;;;3.50;2.57;;;2.70;99.90;;;;;;5933477;24;20432;-82
2021/04/13 01:48:05;;;;;;;5.30;3.00;;;2.70;99.90;;;;;;5993436;23;20414;-81
2021/04/13 01:50:38;;;;;;;4.13;2.93;;;2.60;99.90;;;;;;6070799;23;20461;-82
2021/04/13 01:53:12;;;;;;;4.00;2.63;;;2.70;99.90;;;;;;6119590;23;20418;-82
2021/04/13 01:55:52;;;;;;;8.03;2.97;;;2.60;99.90;;;;;;6118671;23;20450;-82
2021/04/13 01:58:26;;;;;;;5.43;3.63;;;2.60;99.90;;;;;;6094155;23;20476;-82
2021/04/13 02:01:07;;;;;;;5.80;2.80;;;2.60;99.90;;;;;;6119381;23;20433;-82
2021/04/13 02:03:41;;;;;;;3.07;2.77;;;2.60;99.90;;;;;;6094272;23;20425;-81
2021/04/13 02:06:15;;;;;;;4.67;2.60;;;2.60;99.90;;;;;;6118209;23;20453;-81
2021/04/13 02:08:48;;;;;;;5.10;3.13;;;2.60;99.90;;;;;;6119467;23;20758;-82
2021/04/13 02:11:24;;;;;;;6.87;2.47;;;2.60;99.90;;;;;;6070933;23;20427;-82
2021/04/13 02:13:57;;;;;;;3.50;2.63;;;2.60;99.90;;;;;;6070501;23;20417;-82
2021/04/13 02:16:30;;;;;;;4.07;2.80;;;2.60;99.90;;;;;;6094628;23;20439;-82
2021/04/13 02:19:00;;;;;;;5.47;2.60;;;2.50;99.90;;;;;;6118828;23;20528;-82
2021/04/13 02:21:34;;;;;;;3.63;2.50;;;2.50;99.90;;;;;;6070706;23;20425;-82
2021/04/13 02:27:47;;;;;;;5.07;2.47;;;2.50;99.90;;;;;;6023369;23;21004;-82
2021/04/13 02:38:15;;;;;;;5.67;2.90;;;2.50;99.90;;;;;;6036178;23;20406;-82
2021/04/13 02:40:52;;;;;;;6.93;3.33;;;2.40;99.90;;;;;;6057276;23;20445;-82
2021/04/13 02:47:13;;;;;;;6.60;3.33;;;2.40;99.90;;;;;;5955811;24;20422;-83
2021/04/13 02:49:42;;;;;;;7.47;3.73;;;2.40;99.90;;;;;;6078430;23;20444;-84
2021/04/13 02:52:18;;;;;;;5.90;3.20;;;2.40;99.90;;;;;;6122162;23;20458;-84
2021/04/13 02:54:51;;;;;;;7.57;3.50;;;2.40;99.90;;;;;;6121284;23;20509;-84
2021/04/13 02:57:24;;;;;;;7.70;3.50;;;2.40;99.90;;;;;;6121672;23;20525;-84
2021/04/13 02:59:58;;;;;;;4.87;3.27;;;2.40;99.90;;;;;;6097167;23;20439;-83
2021/04/13 03:02:36;;;;;;;4.70;3.03;;;2.40;99.90;;;;;;6073024;23;20928;-83
2021/04/13 03:05:06;;;;;;;9.17;3.60;;;2.40;99.90;;;;;;6096462;23;20411;-83
2021/04/13 03:07:39;;;;;;;4.43;3.10;;;2.40;99.90;;;;;;6073287;23;20949;-83
2021/04/13 03:10:10;;;;;;;4.40;3.03;;;2.40;99.90;;;;;;6096607;23;20449;-83
2021/04/13 03:12:46;;;;;;;9.47;3.83;;;2.40;99.90;;;;;;6073979;23;20475;-83
2021/04/13 03:15:16;;;;;;;4.90;3.07;;;2.40;99.90;;;;;;6073036;23;20425;-83
2021/04/13 03:17:48;;;;;;;7.10;3.67;;;2.40;99.90;;;;;;6099581;23;20409;-82
2021/04/13 03:20:21;;;;;;;6.57;3.07;;;2.40;99.90;;;;;;6120452;23;20502;-82
2021/04/13 03:22:50;;;;;;;6.63;3.30;;;2.40;99.90;;;;;;6096151;23;20419;-82
2021/04/13 03:25:23;;;;;;;6.80;3.07;;;2.40;99.90;;;;;;6072054;23;20429;-82
2021/04/13 03:27:57;;;;;;;4.80;2.80;;;2.40;99.90;;;;;;6096501;23;20811;-81
2021/04/13 03:30:29;;;;;;;5.43;3.70;;;2.40;99.90;;;;;;6073356;23;20443;-82
2021/04/13 03:33:01;;;;;;;5.40;3.17;;;2.40;99.90;;;;;;6074179;23;20445;-82
2021/04/13 03:35:30;;;;;;;7.70;3.50;;;2.40;99.90;;;;;;6098543;23;20547;-83
2021/04/13 03:39:08;;;;;;;4.67;3.17;;;2.40;99.90;;;;;;6075451;23;20435;-82
2021/04/13 03:45:47;;;;;;;5.30;3.33;;;2.40;99.90;;;;;;6008559;23;20424;-84
2021/04/13 03:51:48;;;;;;;7.20;3.70;;;2.40;99.90;;;;;;6016151;23;20427;-84
2021/04/13 03:54:24;;;;;;;6.83;3.30;;;2.40;99.90;;;;;;6097786;23;20456;-83
2021/04/13 03:56:53;;;;;;;7.43;3.60;;;2.40;99.90;;;;;;6122472;23;20462;-84
2021/04/13 03:59:24;;;;;;;6.20;3.37;;;2.40;99.90;;;;;;6098688;23;20448;-85
2021/04/13 04:02:06;;;;;;;7.30;4.20;;;2.40;99.90;;;;;;6124109;23;20462;-85
2021/04/13 04:04:43;;;;;;;3.40;2.77;;;2.40;99.90;;;;;;6085568;23;20418;-83
2021/04/13 04:07:20;;;;;;;8.30;3.80;;;2.40;99.90;;;;;;6122796;23;20423;-83
2021/04/13 04:09:49;;;;;;;5.13;3.40;;;2.40;99.90;;;;;;6072969;23;20517;-82
2021/04/13 04:12:21;;;;;;;5.80;3.80;;;2.40;99.90;;;;;;6073727;23;20471;-82
2021/04/13 04:18:38;;;;;;;5.30;3.30;;;2.40;99.90;;;;;;6074410;23;20395;-84
2021/04/13 04:21:17;;;;;;;5.50;2.93;;;2.40;99.90;;;;;;6074102;23;20490;-84
2021/04/13 04:23:45;;;;;;;8.03;3.80;;;2.40;99.90;;;;;;6098644;23;20416;-84
2021/04/13 04:26:20;;;;;;;5.63;3.23;;;2.30;99.90;;;;;;6098817;23;20423;-84
2021/04/13 04:28:48;;;;;;;7.10;4.20;;;2.40;99.90;;;;;;6073723;23;20448;-84
2021/04/13 04:31:40;;;;;;;4.90;3.40;;;2.40;99.90;;;;;;6074754;23;20425;-85
2021/04/13 04:34:47;;;;;;;7.72;4.07;;;2.30;99.90;;;;;;6060330;23;20897;-84
2021/04/13 04:37:21;;;;;;;5.73;3.50;;;2.50;99.90;;;;;;6074423;23;20198;-84
2021/04/13 04:40:12;;;;;;;5.90;3.13;;;2.50;99.90;;;;;;6073903;23;20491;-84
2021/04/13 04:42:46;;;;;;;5.78;3.60;;;2.40;99.90;;;;;;6123535;23;20862;-84
2021/04/13 04:45:17;;;;;;;4.20;3.40;;;2.40;99.90;;;;;;6074480;23;20163;-83
2021/04/13 04:47:46;;;;;;;8.30;3.80;;;2.40;99.90;;;;;;6122855;23;20864;-83
2021/04/13 04:50:20;;;;;;;5.80;3.70;;;2.40;99.90;;;;;;6097560;23;20449;-83
2021/04/13 04:52:50;;;;;;;7.60;4.57;;;2.40;99.90;;;;;;6098800;23;20410;-83
2021/04/13 04:55:18;;;;;;;5.10;3.47;;;2.30;99.90;;;;;;6097982;23;20516;-83
2021/04/13 04:57:46;;;;;;;5.33;3.80;;;2.30;99.90;;;;;;6074215;23;20480;-84
2021/04/13 05:00:13;;;;;;;7.07;4.77;;;2.30;99.90;;;;;;6073689;23;20447;-84
2021/04/13 05:02:43;;;;;;;5.23;3.93;;;2.30;99.90;;;;;;6074185;23;20898;-84
2021/04/13 05:05:12;;;;;;;4.13;3.33;;;2.30;99.90;;;;;;6074064;23;20913;-84
2021/04/13 05:07:41;;;;;;;5.50;3.90;;;2.20;99.90;;;;;;6083240;23;20400;-84
2021/04/13 05:10:09;;;;;;;6.20;3.70;;;2.30;99.90;;;;;;6098445;23;20449;-84
2021/04/13 05:12:36;;;;;;;6.37;3.40;;;2.30;99.90;;;;;;6098998;23;20422;-84
2021/04/13 05:15:05;;;;;;;5.40;3.80;;;2.30;99.90;;;;;;6123288;23;20766;-84
2021/04/13 05:17:32;;;;;;;4.87;3.80;;;2.30;99.90;;;;;;6097855;23;20439;-84
2021/04/13 05:20:00;;;;;;;6.00;4.27;;;2.30;99.90;;;;;;6122163;23;20506;-84
2021/04/13 05:22:27;;;;;;;7.90;4.03;;;2.30;99.90;;;;;;6098128;23;20425;-84
2021/04/13 05:24:55;;;;;;;5.53;3.93;;;2.30;99.90;;;;;;6097623;23;20415;-84
2021/04/13 05:27:23;;;;;;;6.00;4.07;;;2.30;99.90;;;;;;6097189;23;20421;-84
2021/04/13 05:29:52;;;;;;;5.03;4.13;;;2.30;99.90;;;;;;6073908;23;20445;-84
2021/04/13 05:32:21;;;;;;;7.63;3.77;;;2.30;99.90;;;;;;6073971;23;20434;-83
2021/04/13 05:34:48;;;;;;;5.43;4.20;;;2.30;99.90;;;;;;6096907;23;20418;-83
2021/04/13 05:37:16;;;;;;;4.90;4.00;;;2.50;99.90;;;;;;6096494;23;20437;-83
2021/04/13 05:39:47;;;;;;;9.53;4.40;;;2.40;99.90;;;;;;6096720;23;20459;-83
2021/04/13 05:42:22;;;;;;;8.67;4.77;;;2.40;99.90;;;;;;6121016;23;20522;-83
2021/04/13 05:44:50;;;;;;;9.17;4.50;;;2.40;99.90;;;;;;6072274;23;20913;-83
2021/04/13 05:47:18;;;;;;;6.50;3.63;;;2.40;99.90;;;;;;6121278;23;20433;-83
2021/04/13 05:49:45;;;;;;;6.70;3.53;;;2.50;99.90;;;;;;6072437;23;20501;-83
2021/04/13 05:52:13;;;;;;;3.70;3.23;;;2.50;99.90;;;;;;6097558;23;20423;-83
2021/04/13 05:54:41;;;;;;;5.33;3.30;;;2.50;99.90;;;;;;6121100;23;20411;-83
2021/04/13 05:57:24;;;;;;;6.70;3.50;;;2.50;99.90;;;;;;6074641;23;20433;-83
2021/04/13 05:59:54;;;;;;;8.80;3.43;;;2.60;99.90;;;;;;6072618;23;20476;-83
2021/04/13 06:02:21;;;;;;;5.70;3.30;;;2.50;99.90;;;;;;6072482;23;20441;-83
2021/04/13 06:04:53;;;;;;;5.90;3.13;;;2.60;99.90;;;;;;6120916;23;20423;-83
2021/04/13 06:07:23;;;;;;;6.60;3.10;;;2.70;99.90;;;;;;6096468;23;20419;-83
2021/04/13 06:09:55;;;;;;;9.50;3.17;;;2.80;99.90;;;;;;6095899;23;20856;-83
2021/04/13 06:12:24;;;;;;;4.10;2.33;;;3.00;99.90;;;;;;6072220;23;20420;-83
2021/04/13 06:14:52;;;;;;;2.50;2.23;;;3.20;99.90;;;;;;6071766;23;20464;-83
2021/04/13 06:17:20;;;;;;;5.60;2.80;;;3.40;99.90;;;;;;6095700;23;20505;-83
2021/04/13 06:19:56;;;;;;;4.77;2.47;;;3.70;99.90;;;;;;6095611;23;21004;-83
2021/04/13 06:22:27;;;;;;;5.90;2.80;;;4.00;99.90;;;;;;6072660;23;20419;-83
2021/04/13 06:24:56;;;;;;;6.20;2.30;;;4.20;99.90;;;;;;6120806;23;20449;-83
2021/04/13 06:27:25;;;;;;;4.13;2.50;;;4.40;99.90;;;;;;6072349;23;20421;-83
2021/04/13 06:29:53;;;;;;;4.40;2.77;;;4.60;99.90;;;;;;6072210;23;20494;-83
2021/04/13 06:43:43;;;;;;;5.70;2.30;;;5.70;99.90;;;;;;5958059;24;20514;-83
2021/04/13 06:52:55;;;;;;;8.10;2.67;;;6.30;99.90;;;;;;6071372;23;20411;-83
2021/04/13 06:56:22;;;;;;;;;;;;;;;;;;;;;
2021/04/13 07:00:02;;;;;;;6.67;2.43;;;6.60;99.90;;;;;;6023429;23;20429;-83
2021/04/13 07:03:30;;;;;;;8.37;2.30;;;6.90;99.90;;;;;;5954545;24;20445;-83
2021/04/13 07:13:54;;;;;;;7.67;2.50;;;7.40;99.90;;;;;;5995365;23;21015;-82
2021/04/13 07:38:21;;;;;;;6.57;2.20;;;7.80;99.90;;;;;;5921577;24;20451;-82
2021/04/13 07:46:01;;;;;;;5.43;1.87;;;8.10;99.90;;;;;;5915156;24;20435;-82
2021/04/13 07:49:15;;;;;;;8.20;2.25;;;8.20;99.90;;;;;;5835182;24;20895;-82
2021/04/13 07:51:56;;;;;;;4.80;1.90;;;8.60;99.90;;;;;;5889617;24;20224;-81
2021/04/13 07:54:44;;;;;;;7.07;2.50;;;8.80;99.90;;;;;;5998707;23;20469;-82
2021/04/13 07:57:19;;;;;;;3.80;2.00;;;8.70;99.90;;;;;;6046109;23;20444;-82
2021/04/13 08:03:47;;;;;;;5.63;2.00;;;8.50;99.90;;;;;;5926597;24;20503;-82
2021/04/13 08:06:44;;;;;;;6.40;1.90;;;8.20;99.90;;;;;;5931051;24;20453;-84
2021/04/13 08:09:43;;;;;;;5.50;1.97;;;8.10;99.90;;;;;;5931215;24;20484;-84
2021/04/13 08:12:27;;;;;;;5.47;1.50;;;8.10;99.90;;;;;;5934014;24;20420;-84
2021/04/13 08:15:39;;;;;;;4.37;1.43;;;7.90;99.90;;;;;;5937608;24;20431;-82
2021/04/13 08:21:33;;;;;;;2.37;1.20;;;7.60;99.90;;;;;;6041005;23;20420;-82
2021/04/13 08:24:47;;;;;;;2.83;0.87;;;7.70;99.90;;;;;;6070826;23;20418;-82
2021/04/13 08:28:27;;;;;;;3.53;1.30;;;7.90;99.90;;;;;;6073654;23;20758;-82
2021/04/13 08:34:21;;;;;;;5.27;1.50;;;8.50;99.90;;;;;;6072972;23;20735;-82
2021/04/13 08:36:53;;;;;;;5.70;2.50;;;8.70;99.90;;;;;;6072630;23;20434;-82
2021/04/13 08:39:26;;;;;;;4.47;1.50;;;8.90;99.90;;;;;;6096222;23;20484;-82
2021/04/13 08:42:06;;;;;;;7.00;1.90;;;9.10;99.90;;;;;;6121820;23;20481;-82
2021/04/13 08:44:46;;;;;;;6.80;1.80;;;9.30;99.90;;;;;;6096767;23;20416;-82
2021/04/13 08:47:24;;;;;;;3.27;1.50;;;9.40;99.90;;;;;;6084213;23;20390;-82
2021/04/13 08:49:54;;;;;;;6.40;1.77;;;9.40;99.90;;;;;;6095585;23;20446;-81
2021/04/13 08:52:39;;;;;;;5.17;1.73;;;9.40;99.90;;;;;;6095945;23;20418;-82
2021/04/13 08:55:12;;;;;;;4.20;1.63;;;9.40;99.90;;;;;;6097831;23;20416;-82
2021/04/13 08:57:41;;;;;;;6.87;2.13;;;9.30;99.90;;;;;;6122261;23;20444;-82
2021/04/13 09:00:43;;;;;;;7.00;2.20;;;9.30;99.90;;;;;;6122128;23;20445;-83
2021/04/13 09:03:13;;;;;;;11.50;2.93;;;9.40;99.90;;;;;;6043619;23;20441;-83
2021/04/13 09:05:42;;;;;;;4.90;2.27;;;9.50;99.90;;;;;;6098119;23;20467;-83
2021/04/13 09:08:27;;;;;;;8.03;3.00;;;9.60;99.90;;;;;;6121952;23;20419;-83
2021/04/13 09:11:15;;;;;;;8.10;2.83;;;9.80;99.90;;;;;;6097542;23;20416;-83
2021/04/13 09:13:51;;;;;;;7.43;2.07;;;9.90;99.90;;;;;;6122909;23;20510;-83
2021/04/13 09:16:26;;;;;;;10.93;2.33;;;9.90;99.90;;;;;;6073251;23;20494;-83
2021/04/13 09:18:57;;;;;;;5.43;1.87;;;10.00;99.90;;;;;;6121621;23;20444;-83
2021/04/13 09:21:39;;;;;;;5.10;1.80;;;10.00;99.90;;;;;;6073465;23;20495;-83
2021/04/13 09:24:19;;;;;;;6.00;2.10;;;10.00;99.90;;;;;;6097553;23;20786;-83
2021/04/13 09:27:21;;;;;;;4.50;2.00;;;9.90;99.90;;;;;;6097252;23;20412;-83
2021/04/13 09:29:50;;;;;;;2.50;1.30;;;10.00;99.90;;;;;;6073396;23;20450;-82
2021/04/13 09:32:40;;;;;;;3.60;0.90;;;9.80;99.90;;;;;;6084920;23;20439;-83
2021/04/13 09:35:37;;;;;;;3.27;0.90;;;9.40;99.90;;;;;;6098626;23;20412;-83
2021/04/13 09:38:32;;;;;;;2.90;0.87;;;8.80;99.90;;;;;;6100088;23;20469;-83
2021/04/13 09:41:11;;;;;;;2.80;1.08;;;8.20;99.90;;;;;;6100412;23;20488;-84
2021/04/13 09:43:51;;;;;;;2.00;0.90;;;7.80;99.90;;;;;;6084450;23;20196;-83
2021/04/13 09:46:34;;;;;;;3.30;1.17;;;7.50;99.90;;;;;;6122040;23;20900;-83
2021/04/13 09:49:49;;;;;;;3.87;1.10;;;7.20;99.90;;;;;;6073585;23;20445;-83
2021/04/13 09:52:43;;;;;;;3.70;1.00;;;7.10;99.90;;;;;;5962231;24;20434;-85
2021/04/13 09:55:32;;;;;;;2.20;1.00;;;7.20;99.90;;;;;;6093017;23;20175;-85
2021/04/13 09:58:24;;;;;;;5.53;1.30;;;7.10;99.90;;;;;;6073126;23;20462;-83
2021/04/13 10:01:03;;;;;;;5.33;1.10;;;7.10;99.90;;;;;;6073790;23;20430;-83
2021/04/13 10:04:11;;;;;;;3.10;1.27;;;7.10;99.90;;;;;;6097394;23;20414;-83
2021/04/13 10:06:47;;;;;;;3.50;1.40;;;7.30;99.90;;;;;;6097646;23;20420;-83
2021/04/13 10:09:23;;;;;;;6.17;1.30;;;7.60;99.90;;;;;;6121641;23;20994;-83
2021/04/13 10:12:33;;;;;;;4.87;1.37;;;7.80;99.90;;;;;;6097790;23;20422;-84
2021/04/13 10:15:33;;;;;;;6.43;1.50;;;8.00;99.90;;;;;;6099551;23;20896;-83
2021/04/13 10:18:33;;;;;;;5.07;2.10;;;8.20;99.90;;;;;;6067168;23;20947;-84
2021/04/13 10:21:09;;;;;;;6.20;1.77;;;8.50;99.90;;;;;;6075425;23;20420;-84
2021/04/13 10:24:03;;;;;;;3.27;1.23;;;8.60;99.90;;;;;;6085708;23;20953;-84
2021/04/13 10:27:33;;;;;;;5.00;1.20;;;8.70;99.90;;;;;;6096962;23;20416;-84
2021/04/13 10:30:18;;;;;;;6.80;1.80;;;8.70;99.90;;;;;;6020710;23;20451;-84
2021/04/13 10:33:07;;;;;;;4.00;1.73;;;8.60;99.90;;;;;;6021240;23;20416;-84
2021/04/13 10:36:10;;;;;;;5.17;1.93;;;8.50;99.90;;;;;;6071598;23;20479;-84
2021/04/13 10:39:07;;;;;;;7.13;2.10;;;8.40;99.90;;;;;;6097542;23;20447;-84
2021/04/13 10:42:17;;;;;;;8.97;2.50;;;8.30;99.90;;;;;;6073774;23;20756;-84
2021/04/13 10:45:23;;;;;;;8.37;2.90;;;8.30;99.90;;;;;;6074039;23;20821;-85
2021/04/13 10:48:43;;;;;;;5.30;1.50;;;8.30;99.90;;;;;;6122600;23;20797;-85
2021/04/13 10:51:53;;;;;;;8.80;1.97;;;8.30;99.90;;;;;;6073941;23;20419;-84
2021/04/13 10:55:15;;;;;;;4.07;1.43;;;8.40;99.90;;;;;;6098233;23;20473;-85
2021/04/13 10:58:29;;;;;;;3.23;1.20;;;8.50;99.90;;;;;;6020668;23;20442;-85
2021/04/13 11:01:45;;;;;;;3.27;1.30;;;8.50;99.90;;;;;;6097872;23;20928;-84
2021/04/13 11:04:43;;;;;;;2.90;0.80;;;8.50;99.90;;;;;;6073629;23;20428;-84
2021/04/13 11:07:58;;;;;;;6.03;1.23;;;8.50;99.90;;;;;;6061667;23;20786;-84
2021/04/13 11:10:52;;;;;;;2.43;1.00;;;8.50;99.90;;;;;;6097430;23;20494;-85
2021/04/13 11:13:56;;;;;;;4.60;0.90;;;8.40;99.90;;;;;;6069330;23;20426;-84
2021/04/13 11:16:57;;;;;;;4.10;1.00;;;8.40;99.90;;;;;;6043015;23;20515;-85
2021/04/13 11:19:26;;;;;;;1.87;1.00;;;8.40;99.90;;;;;;6097351;23;20448;-84
2021/04/13 11:22:36;;;;;;;3.30;1.00;;;8.30;99.90;;;;;;6073755;23;20947;-84
2021/04/13 11:25:36;;;;;;;5.10;1.42;;;8.30;99.90;;;;;;6122327;23;20429;-84
2021/04/13 11:28:39;;;;;;;4.80;1.23;;;8.30;99.90;;;;;;6098717;23;20175;-84
2021/04/13 11:31:34;;;;;;;2.37;1.30;;;8.20;99.90;;;;;;6122653;23;20418;-84
2021/04/13 11:34:32;;;;;;;3.00;1.20;;;8.20;99.90;;;;;;6098012;23;20422;-84
2021/04/13 11:37:24;;;;;;;3.40;1.50;;;8.30;99.90;;;;;;6073768;23;20463;-84
2021/04/13 11:40:16;;;;;;;5.50;1.90;;;8.30;99.90;;;;;;6075685;23;20448;-84
2021/04/13 11:42:44;;;;;;;4.00;1.00;;;8.50;99.90;;;;;;6099686;23;20429;-84
2021/04/13 11:45:26;;;;;;;4.97;0.70;;;8.50;99.90;;;;;;6100022;23;20426;-85
2021/04/13 11:48:04;;;;;;;2.03;0.80;;;8.60;99.90;;;;;;6124412;23;20415;-85
2021/04/13 11:54:45;;;;;;;1.30;0.73;;;8.60;99.90;;;;;;5879350;24;20961;-85
2021/04/13 11:57:17;;;;;;;5.43;0.97;;;8.40;99.90;;;;;;5880335;24;20452;-85
2021/04/13 12:00:24;;;;;;;2.33;0.90;;;8.20;99.90;;;;;;5961062;24;20942;-84
2021/04/13 12:03:20;;;;;;;1.70;0.80;;;8.20;99.90;;;;;;5961375;24;20421;-85
2021/04/13 12:05:50;;;;;;;2.00;0.70;;;8.10;99.90;;;;;;5961424;24;20442;-85
2021/04/13 12:08:53;;;;;;;2.73;0.80;;;8.20;99.90;;;;;;5960662;24;20425;-85
2021/04/13 12:11:44;;;;;;;2.40;0.70;;;8.20;99.90;;;;;;5960367;24;20495;-84
2021/04/13 12:14:38;;;;;;;2.97;1.17;;;8.30;99.90;;;;;;5958435;24;20809;-83
2021/04/13 12:17:25;;;;;;;4.03;1.10;;;8.30;99.90;;;;;;5935612;24;20450;-83
2021/04/13 12:20:19;;;;;;;3.60;1.00;;;8.30;99.90;;;;;;5949512;24;20446;-83
2021/04/13 12:22:47;;;;;;;1.90;0.97;;;8.40;99.90;;;;;;5968691;24;20424;-83
2021/04/13 12:25:35;;;;;;;1.93;0.80;;;8.40;99.90;;;;;;6029119;23;20453;-83
2021/04/13 12:28:07;;;;;;;4.30;1.77;;;8.40;99.90;;;;;;6098069;23;20457;-83
2021/04/13 12:31:14;;;;;;;2.27;0.90;;;8.40;99.90;;;;;;6122531;23;20450;-83
2021/04/13 12:34:05;;;;;;;5.67;1.20;;;8.40;99.90;;;;;;6097500;23;20423;-83
2021/04/13 12:36:54;;;;;;;2.17;0.93;;;8.30;99.90;;;;;;6085615;23;20828;-83
2021/04/13 12:39:48;;;;;;;5.20;1.30;;;8.30;99.90;;;;;;6085911;23;20972;-82
2021/04/13 12:42:40;;;;;;;3.90;1.50;;;8.20;99.90;;;;;;6073552;23;20750;-82
2021/04/13 12:45:49;;;;;;;3.63;1.03;;;8.20;99.90;;;;;;6098500;23;20424;-82
2021/04/13 12:48:44;;;;;;;3.00;1.33;;;8.10;99.90;;;;;;6110876;23;20423;-82
2021/04/13 12:51:26;;;;;;;2.47;0.93;;;8.20;99.90;;;;;;6091143;23;20434;-83
2021/04/13 12:54:22;;;;;;;3.10;1.50;;;8.20;99.90;;;;;;6074706;23;20422;-83
2021/04/13 12:57:02;;;;;;;6.23;1.37;;;8.30;99.90;;;;;;6074647;23;22313;-80
2021/04/13 13:04:14;;;;;;;3.67;1.10;;;8.50;99.90;;;;;;6082876;23;20411;-80
2021/04/13 13:10:30;;;;;;;4.45;1.70;;;8.60;99.90;;;;;;6119614;23;20873;-80
2021/04/13 13:13:03;;;;;;;4.17;1.17;;;8.80;99.90;;;;;;6095907;23;20176;-80
2021/04/13 13:15:33;;;;;;;1.90;1.00;;;8.90;99.90;;;;;;6093976;23;20422;-80
2021/04/13 13:18:18;;;;;;;2.00;1.23;;;9.00;99.90;;;;;;6093417;23;20439;-80
2021/04/13 13:20:46;;;;;;;2.33;0.70;;;9.00;99.90;;;;;;6118657;23;20925;-80
2021/04/13 13:23:24;;;;;;;1.43;0.73;;;9.00;99.70;;;;;;6093950;23;20422;-80
2021/04/13 13:25:56;;;;;;;2.07;0.90;;;9.00;99.40;;;;;;6070204;23;20413;-80
2021/04/13 13:28:24;;;;;;;3.97;1.00;;;9.00;98.70;;;;;;6069929;23;20415;-80
2021/04/13 13:30:53;;;;;;;2.60;0.80;;;9.00;98.60;;;;;;6093247;23;20422;-80
2021/04/13 13:33:25;;;;;;;5.30;3.23;;;9.10;98.60;;;;;;6093594;23;20455;-80
2021/04/13 13:35:54;;;;;;;3.70;1.17;;;9.20;98.60;;;;;;6093780;23;20540;-80
2021/04/13 13:38:25;;;;;;;3.13;1.80;;;9.20;98.50;;;;;;6117624;23;20453;-80
2021/04/13 13:40:55;;;;;;;2.80;1.40;;;9.30;98.60;;;;;;6093327;23;20429;-80
2021/04/13 13:43:25;;;;;;;2.83;1.20;;;9.40;98.80;;;;;;6093575;23;20962;-80
2021/04/13 13:46:13;;;;;;;4.77;1.70;;;9.40;98.80;;;;;;6093150;23;20483;-80
2021/04/13 13:48:40;;;;;;;2.23;0.80;;;9.40;98.30;;;;;;6093250;23;20415;-80
2021/04/13 13:51:12;;;;;;;4.20;2.10;;;9.40;98.00;;;;;;6081078;23;20746;-80
2021/04/13 13:53:47;;;;;;;1.97;1.13;;;9.40;97.60;;;;;;6117949;23;20428;-80
2021/04/13 13:56:30;;;;;;;2.87;1.50;;;9.50;97.40;;;;;;6093891;23;20744;-80
2021/04/13 13:59:25;;;;;;;3.07;1.30;;;9.40;97.00;;;;;;6092935;23;20458;-80
2021/04/13 14:02:02;;;;;;;2.07;0.80;;;9.50;96.90;;;;;;6093103;23;20864;-80
2021/04/13 14:04:33;;;;;;;6.50;1.50;;;9.50;96.80;;;;;;6092963;23;20521;-80
2021/04/13 14:07:10;;;;;;;2.77;1.10;;;9.60;96.60;;;;;;6079783;23;20755;-79
2021/04/13 14:09:39;;;;;;;2.90;1.07;;;9.60;96.10;;;;;;6092710;23;20457;-80
2021/04/13 14:12:29;;;;;;;2.70;1.20;;;9.50;96.20;;;;;;6117085;23;20895;-79
2021/04/13 14:14:57;;;;;;;3.70;1.07;;;9.50;96.20;;;;;;6093087;23;20420;-79
2021/04/13 14:17:33;;;;;;;5.53;1.00;;;9.50;96.30;;;;;;6069083;23;20447;-79
2021/04/13 14:20:09;;;;;;;4.37;1.27;;;9.40;96.40;;;;;;6080682;23;20515;-79
2021/04/13 14:22:37;;;;;;;3.07;1.13;;;9.30;96.50;;;;;;6093575;23;20879;-80
2021/04/13 14:25:12;;;;;;;2.07;1.20;;;9.10;96.50;;;;;;6070047;23;20417;-80
2021/04/13 14:27:42;;;;;;;4.23;1.73;;;9.00;96.50;;;;;;6093193;23;20921;-80
2021/04/13 14:30:13;;;;;;;3.47;1.03;;;8.90;96.60;;;;;;6117301;23;20497;-80
2021/04/13 14:32:45;;;;;;;3.03;1.07;;;8.90;96.80;;;;;;6117407;23;20418;-79
2021/04/13 14:35:13;;;;;;;2.40;1.23;;;8.90;96.90;;;;;;6093945;23;20897;-80
2021/04/13 14:37:41;;;;;;;3.77;1.47;;;8.90;97.00;;;;;;6119696;23;20456;-80
2021/04/13 14:40:12;;;;;;;3.70;1.10;;;8.90;97.10;;;;;;6072559;23;20471;-80
2021/04/13 14:42:56;;;;;;;2.97;1.23;;;9.00;97.20;;;;;;6096985;23;20434;-81
2021/04/13 14:45:25;;;;;;;4.27;1.20;;;9.10;97.20;;;;;;6082265;23;20461;-81
2021/04/13 14:47:56;;;;;;;2.90;1.33;;;9.10;97.10;;;;;;6095618;23;20428;-81
2021/04/13 14:50:26;;;;;;;3.37;1.30;;;9.10;97.20;;;;;;6095967;23;20443;-81
2021/04/13 14:52:53;;;;;;;2.87;1.17;;;9.20;97.20;;;;;;6095999;23;20424;-80
2021/04/13 14:55:24;;;;;;;3.50;1.00;;;9.30;97.20;;;;;;6122102;23;20541;-81
2021/04/13 14:57:53;;;;;;;2.90;1.20;;;9.30;97.30;;;;;;6124435;23;20434;-81
2021/04/13 15:00:25;;;;;;;2.70;1.10;;;9.40;97.30;;;;;;6069036;23;20496;-80
2021/04/13 15:02:54;;;;;;;3.33;1.10;;;9.60;97.10;;;;;;6095023;23;20175;-80
2021/04/13 15:05:21;;;;;;;3.83;1.37;;;9.70;96.90;;;;;;6119594;23;20469;-80
2021/04/13 15:07:51;;;;;;;4.03;1.63;;;9.70;97.00;;;;;;6070620;23;20470;-80
2021/04/13 15:10:23;;;;;;;4.33;1.63;;;9.60;97.20;;;;;;6095380;23;20455;-80
2021/04/13 15:12:51;;;;;;;6.13;1.90;;;9.60;97.40;;;;;;6081915;23;20392;-80
2021/04/13 15:15:21;;;;;;;4.77;1.63;;;9.70;97.50;;;;;;6094656;23;20420;-80
2021/04/13 15:17:49;;;;;;;2.90;1.50;;;9.70;97.60;;;;;;6119433;23;20448;-81
2021/04/13 15:20:22;;;;;;;5.13;2.47;;;9.80;97.60;;;;;;6070867;23;20443;-80
2021/04/13 15:22:55;;;;;;;3.47;1.60;;;9.80;97.60;;;;;;6118569;23;20427;-80
2021/04/13 15:25:24;;;;;;;2.53;1.50;;;9.90;97.60;;;;;;6116568;23;20422;-79
2021/04/13 15:27:57;;;;;;;4.67;1.27;;;10.00;97.00;;;;;;6068033;23;20812;-79
2021/04/13 15:30:27;;;;;;;2.70;1.43;;;10.00;96.90;;;;;;6092151;23;20963;-79
2021/04/13 15:32:55;;;;;;;6.23;1.70;;;10.10;96.60;;;;;;6091760;23;20464;-79
2021/04/13 15:35:29;;;;;;;2.33;1.10;;;10.00;96.40;;;;;;6091776;23;20469;-79
2021/04/13 15:38:01;;;;;;;3.80;1.30;;;10.00;96.30;;;;;;6091969;23;20437;-79
2021/04/13 15:40:32;;;;;;;2.90;1.03;;;9.90;96.50;;;;;;6091807;23;20449;-79
2021/04/13 15:43:08;;;;;;;4.67;0.90;;;9.90;95.90;;;;;;6091882;23;20422;-79
2021/04/13 15:45:39;;;;;;;3.30;1.30;;;9.90;95.50;;;;;;6091753;23;20414;-79
2021/04/13 15:48:14;;;;;;;3.47;1.30;;;9.80;95.30;;;;;;6068196;23;20412;-79
2021/04/13 15:50:42;;;;;;;1.47;0.70;;;9.70;95.00;;;;;;6091758;23;20492;-79
2021/04/13 15:53:10;;;;;;;1.70;1.00;;;9.60;94.90;;;;;;6068038;23;20430;-79
2021/04/13 15:55:37;;;;;;;3.40;1.20;;;9.50;94.60;;;;;;6115984;23;20404;-79
2021/04/13 15:58:05;;;;;;;3.60;1.47;;;9.40;94.50;;;;;;6067757;23;20447;-79
2021/04/13 16:00:52;;;;;;;3.30;1.00;;;9.40;94.70;;;;;;6078708;23;20471;-79
2021/04/13 16:03:20;;;;;;;3.97;1.43;;;9.30;94.90;;;;;;6091509;23;21008;-79
2021/04/13 16:05:48;;;;;;;2.50;1.20;;;9.30;95.10;;;;;;6067610;23;20418;-79